createdAt,value
2023-02-28T00:01:40.920Z,6.07
2023-02-28T00:04:43.217Z,5.55
2023-02-28T00:07:45.330Z,5.88
2023-02-28T00:10:47.278Z,5.47
2023-02-28T00:13:49.711Z,6.55
2023-02-28T00:16:51.486Z,6.20
2023-02-28T00:19:53.461Z,9.70
2023-02-28T00:22:55.589Z,10.55
2023-02-28T00:25:57.450Z,7.97
2023-02-28T00:28:59.246Z,7.53
2023-02-28T00:32:01.773Z,6.53
2023-02-28T00:35:04.674Z,5.27
2023-02-28T00:38:06.831Z,6.38
2023-02-28T00:41:09.004Z,6.22
2023-02-28T00:44:10.905Z,6.53
2023-02-28T00:47:12.855Z,6.50
2023-02-28T00:50:14.795Z,7.35
2023-02-28T00:53:16.678Z,6.85
2023-02-28T00:56:18.473Z,5.88
2023-02-28T00:59:20.581Z,6.28
2023-02-28T01:02:23.477Z,6.78
2023-02-28T01:05:25.515Z,6.20
2023-02-28T01:08:27.779Z,6.72
2023-02-28T01:11:29.874Z,6.38
2023-02-28T01:14:32.141Z,4.65
2023-02-28T01:17:33.899Z,6.57
2023-02-28T01:20:38.383Z,6.95
2023-02-28T01:23:40.902Z,7.28
2023-02-28T01:26:42.863Z,6.38
2023-02-28T01:29:44.831Z,6.03
2023-02-28T01:32:46.719Z,6.05
2023-02-28T01:35:48.555Z,5.80
2023-02-28T01:38:51.336Z,6.35
2023-02-28T01:41:53.326Z,6.32
2023-02-28T01:45:30.688Z,5.90
2023-02-28T01:48:35.848Z,6.43
2023-02-28T01:51:59.559Z,6.65
2023-02-28T02:01:08.874Z,6.60
2023-02-28T02:04:11.145Z,6.47
2023-02-28T02:07:14.594Z,6.15
2023-02-28T02:10:23.009Z,7.10
2023-02-28T02:13:42.687Z,7.00
2023-02-28T02:16:47.280Z,6.80
2023-02-28T02:20:02.223Z,6.47
2023-02-28T02:23:29.873Z,7.07
2023-02-28T02:26:56.617Z,7.20
2023-02-28T02:30:17.720Z,6.10
2023-02-28T02:34:02.053Z,6.78
2023-02-28T02:37:16.611Z,6.82
2023-02-28T02:40:24.915Z,6.80
2023-02-28T02:43:47.780Z,6.47
2023-02-28T02:46:54.369Z,6.13
2023-02-28T02:49:59.473Z,6.47
2023-02-28T02:53:03.892Z,6.85
2023-02-28T02:56:07.017Z,6.10
2023-02-28T02:59:12.437Z,6.30
2023-02-28T03:02:16.674Z,5.93
2023-02-28T03:05:27.243Z,6.00
2023-02-28T03:08:30.991Z,6.30
2023-02-28T03:11:36.098Z,6.38
2023-02-28T03:14:52.578Z,6.40
2023-02-28T03:18:03.065Z,6.45
2023-02-28T03:21:31.832Z,5.93
2023-02-28T03:24:44.578Z,6.20
2023-02-28T03:28:05.407Z,6.90
2023-02-28T03:31:18.474Z,6.70
2023-02-28T03:34:32.474Z,6.93
2023-02-28T03:37:38.760Z,5.82
2023-02-28T03:40:45.186Z,6.13
2023-02-28T03:44:01.952Z,6.90
2023-02-28T03:47:10.112Z,7.45
2023-02-28T03:50:15.667Z,7.07
2023-02-28T03:53:36.258Z,7.15
2023-02-28T03:56:57.655Z,6.95
2023-02-28T04:00:08.907Z,6.90
2023-02-28T04:03:10.924Z,6.78
2023-02-28T04:06:19.757Z,6.85
2023-02-28T04:09:21.775Z,6.88
2023-02-28T04:12:24.213Z,7.60
2023-02-28T04:15:28.324Z,7.57
2023-02-28T04:18:30.314Z,7.70
2023-02-28T04:21:34.459Z,7.97
2023-02-28T04:24:36.620Z,7.82
2023-02-28T04:27:38.326Z,7.25
2023-02-28T04:30:40.410Z,7.85
2023-02-28T04:33:42.179Z,8.25
2023-02-28T04:36:43.965Z,7.50
2023-02-28T04:39:45.835Z,7.32
2023-02-28T04:42:47.820Z,8.07
2023-02-28T04:45:49.638Z,8.05
2023-02-28T04:48:51.585Z,8.15
2023-02-28T04:51:54.086Z,7.47
2023-02-28T04:54:56.130Z,8.15
2023-02-28T04:57:58.801Z,7.93
2023-02-28T05:01:16.485Z,7.60
2023-02-28T05:04:18.782Z,7.80
2023-02-28T05:07:20.621Z,7.30
2023-02-28T05:10:23.200Z,7.35
2023-02-28T05:13:25.045Z,8.07
2023-02-28T05:16:27.047Z,7.80
2023-02-28T05:19:29.196Z,7.75
2023-02-28T05:22:30.920Z,7.95
2023-02-28T05:25:33.991Z,7.78
2023-02-28T05:28:36.051Z,8.48
2023-02-28T05:31:38.811Z,7.70
2023-02-28T05:34:41.558Z,7.80
2023-02-28T05:37:43.497Z,7.75
2023-02-28T05:40:45.416Z,8.60
2023-02-28T05:43:48.028Z,8.40
2023-02-28T05:46:49.784Z,8.73
2023-02-28T05:49:51.553Z,7.63
2023-02-28T05:52:54.029Z,8.40
2023-02-28T05:55:56.242Z,8.52
2023-02-28T05:58:58.083Z,7.55
2023-02-28T06:02:00.276Z,7.82
2023-02-28T06:05:02.183Z,8.23
2023-02-28T06:08:04.310Z,8.43
2023-02-28T06:11:06.741Z,8.10
2023-02-28T06:14:09.209Z,8.37
2023-02-28T06:17:11.296Z,8.13
2023-02-28T06:20:16.184Z,9.05
2023-02-28T06:23:17.909Z,8.30
2023-02-28T06:26:20.058Z,7.72
2023-02-28T06:29:22.010Z,7.90
2023-02-28T06:32:24.139Z,7.68
2023-02-28T06:35:26.112Z,7.85
2023-02-28T06:38:27.916Z,7.88
2023-02-28T06:41:31.445Z,8.10
2023-02-28T06:44:36.622Z,7.80
2023-02-28T06:47:42.419Z,5.50
2023-02-28T06:50:44.361Z,8.18
2023-02-28T06:53:46.338Z,8.20
2023-02-28T06:56:48.361Z,7.53
2023-02-28T06:59:51.013Z,7.32
2023-02-28T07:02:55.069Z,5.90
2023-02-28T07:05:57.422Z,7.57
2023-02-28T07:09:00.007Z,6.37
2023-02-28T07:12:02.125Z,7.97
2023-02-28T07:15:05.579Z,7.70
2023-02-28T07:18:07.606Z,8.07
2023-02-28T07:21:11.242Z,7.90
2023-02-28T07:24:13.330Z,8.30
2023-02-28T07:27:24.692Z,8.18
2023-02-28T07:30:26.581Z,8.07
2023-02-28T07:33:28.404Z,7.82
2023-02-28T07:36:30.134Z,7.10
2023-02-28T07:39:32.186Z,7.68
2023-02-28T07:42:34.199Z,7.20
2023-02-28T07:45:36.204Z,7.32
2023-02-28T07:48:38.072Z,6.60
2023-02-28T07:51:39.918Z,7.50
2023-02-28T07:54:41.632Z,7.38
2023-02-28T07:57:43.877Z,7.43
2023-02-28T08:00:45.867Z,6.80
2023-02-28T08:03:48.270Z,6.60
2023-02-28T08:06:52.906Z,6.93
2023-02-28T08:09:54.789Z,5.93
2023-02-28T08:12:56.535Z,7.55
2023-02-28T08:15:58.606Z,6.07
2023-02-28T08:19:00.549Z,6.40
2023-02-28T08:22:02.483Z,6.38
2023-02-28T08:25:04.571Z,6.68
2023-02-28T08:28:06.646Z,6.55
2023-02-28T08:31:10.947Z,6.65
2023-02-28T08:34:15.336Z,5.85
2023-02-28T08:37:17.239Z,5.07
2023-02-28T08:40:19.865Z,6.03
2023-02-28T08:43:21.574Z,6.13
2023-02-28T08:46:24.690Z,5.15
2023-02-28T08:49:26.842Z,4.97
2023-02-28T08:52:28.791Z,4.82
2023-02-28T08:55:30.518Z,5.03
2023-02-28T08:58:32.801Z,5.20
2023-02-28T09:01:34.950Z,7.72
2023-02-28T09:04:37.489Z,11.88
2023-02-28T09:07:39.237Z,33.53
2023-02-28T09:10:41.282Z,12.90
2023-02-28T09:13:43.765Z,6.68
2023-02-28T09:16:45.744Z,5.93
2023-02-28T09:19:50.178Z,6.97
2023-02-28T09:22:52.164Z,4.18
2023-02-28T09:25:55.859Z,4.93
2023-02-28T09:28:59.930Z,5.10
2023-02-28T09:32:02.630Z,5.05
2023-02-28T09:35:05.088Z,4.60
2023-02-28T09:38:08.525Z,4.55
2023-02-28T09:41:20.627Z,3.88
2023-02-28T09:44:49.181Z,3.67
2023-02-28T09:47:52.761Z,3.80
2023-02-28T09:51:03.173Z,3.30
2023-02-28T09:54:05.253Z,4.30
2023-02-28T09:57:14.579Z,3.38
2023-02-28T10:00:20.886Z,3.33
2023-02-28T10:03:41.300Z,3.10
2023-02-28T10:06:49.144Z,3.47
2023-02-28T10:09:56.425Z,3.40
2023-02-28T10:13:02.739Z,3.97
2023-02-28T10:16:18.171Z,4.80
2023-02-28T10:19:25.857Z,31.05
2023-02-28T10:22:39.010Z,29.00
2023-02-28T10:25:43.696Z,10.13
2023-02-28T10:28:46.261Z,63.75
2023-02-28T10:31:48.294Z,14.77
2023-02-28T10:35:15.475Z,6.13
2023-02-28T10:38:24.091Z,10.30
2023-02-28T10:41:37.176Z,8.02
2023-02-28T10:44:39.542Z,13.68
2023-02-28T10:47:56.570Z,3.92
2023-02-28T10:50:59.848Z,5.45
2023-02-28T10:54:02.649Z,8.10
2023-02-28T10:57:21.177Z,7.88
2023-02-28T11:00:26.410Z,29.92
2023-02-28T11:03:36.467Z,10.07
2023-02-28T11:06:38.633Z,13.70
2023-02-28T11:09:41.861Z,7.10
2023-02-28T11:12:52.298Z,38.58
2023-02-28T11:15:57.846Z,61.28
2023-02-28T11:19:00.913Z,48.67
2023-02-28T11:22:05.105Z,8.73
2023-02-28T11:25:30.294Z,20.52
2023-02-28T11:28:35.321Z,140.55
2023-02-28T11:31:37.078Z,30.45
2023-02-28T11:34:41.108Z,53.60
2023-02-28T11:37:42.849Z,53.45
2023-02-28T11:40:58.491Z,44.10
2023-02-28T11:44:09.354Z,20.02
2023-02-28T11:47:34.276Z,17.80
2023-02-28T11:50:48.638Z,15.70
2023-02-28T11:54:11.323Z,13.23
2023-02-28T11:57:31.772Z,22.17
2023-02-28T12:00:54.152Z,38.47
2023-02-28T12:04:00.883Z,7.40
2023-02-28T12:07:33.660Z,26.38
2023-02-28T12:10:59.768Z,23.98
2023-02-28T12:14:20.503Z,13.10
2023-02-28T12:17:51.583Z,14.65
2023-02-28T12:21:07.207Z,5.45
2023-02-28T12:24:57.493Z,8.13
2023-02-28T12:28:00.352Z,5.45
2023-02-28T12:31:09.615Z,7.22
2023-02-28T12:34:16.984Z,3.53
2023-02-28T12:37:28.864Z,3.95
2023-02-28T12:40:41.661Z,3.60
2023-02-28T12:43:47.723Z,3.20
2023-02-28T12:46:53.846Z,2.90
2023-02-28T12:50:13.794Z,3.83
2023-02-28T12:53:18.822Z,4.32
2023-02-28T12:56:40.545Z,3.60
2023-02-28T13:00:05.559Z,3.08
2023-02-28T13:03:34.281Z,4.13
2023-02-28T13:07:00.585Z,4.20
2023-02-28T13:10:07.978Z,3.67
2023-02-28T13:13:19.898Z,3.13
2023-02-28T13:16:22.417Z,3.35
2023-02-28T13:19:30.136Z,3.92
2023-02-28T13:22:47.552Z,3.67
2023-02-28T13:25:54.736Z,3.30
2023-02-28T13:29:05.422Z,4.13
2023-02-28T13:32:10.140Z,3.78
2023-02-28T13:35:11.983Z,47.10
2023-02-28T13:38:22.270Z,52.00
2023-02-28T13:41:30.541Z,47.83
2023-02-28T13:45:16.193Z,28.17
2023-02-28T13:48:29.066Z,10.18
2023-02-28T13:51:40.749Z,26.27
2023-02-28T13:54:57.530Z,48.00
2023-02-28T13:58:14.083Z,22.70
2023-02-28T14:01:57.329Z,65.95
2023-02-28T14:08:24.298Z,16.05
2023-02-28T14:11:30.786Z,30.20
2023-02-28T14:14:38.532Z,10.10
2023-02-28T14:17:42.015Z,19.65
2023-02-28T14:20:46.458Z,46.83
2023-02-28T14:24:03.929Z,37.00
2023-02-28T14:27:38.799Z,12.10
2023-02-28T14:30:51.469Z,7.82
2023-02-28T14:34:34.717Z,19.30
2023-02-28T14:37:40.262Z,9.23
2023-02-28T14:40:42.545Z,5.15
2023-02-28T14:43:59.596Z,4.72
2023-02-28T14:47:09.970Z,20.67
2023-02-28T14:50:31.797Z,6.45
2023-02-28T14:53:38.289Z,19.85
2023-02-28T14:56:41.352Z,8.77
2023-02-28T14:59:43.332Z,15.10
2023-02-28T15:02:45.390Z,7.68
2023-02-28T15:05:58.908Z,5.75
2023-02-28T15:09:20.834Z,9.75
2023-02-28T15:12:22.761Z,12.45
2023-02-28T15:16:00.863Z,14.77
2023-02-28T15:19:12.655Z,11.02
2023-02-28T15:22:30.014Z,30.90
2023-02-28T15:25:32.603Z,11.88
2023-02-28T15:28:34.580Z,15.27
2023-02-28T15:31:56.561Z,10.00
2023-02-28T15:35:17.932Z,7.03
2023-02-28T15:38:27.241Z,6.72
2023-02-28T15:41:32.081Z,18.92
2023-02-28T15:44:37.975Z,23.52
2023-02-28T15:47:39.916Z,6.40
2023-02-28T15:50:41.918Z,7.60
2023-02-28T15:54:03.485Z,35.60
2023-02-28T15:57:14.621Z,23.05
2023-02-28T16:00:20.476Z,15.63
2023-02-28T16:03:38.648Z,11.63
2023-02-28T16:06:45.589Z,28.92
2023-02-28T16:09:48.127Z,14.68
2023-02-28T16:12:49.990Z,11.70
2023-02-28T16:15:52.412Z,7.15
2023-02-28T16:18:55.039Z,5.13
2023-02-28T16:21:56.814Z,11.25
2023-02-28T16:24:58.666Z,8.63
2023-02-28T16:28:01.372Z,13.38
2023-02-28T16:31:06.685Z,18.63
2023-02-28T16:34:08.438Z,13.70
2023-02-28T16:37:15.110Z,19.30
2023-02-28T16:40:24.040Z,9.95
2023-02-28T16:43:28.000Z,24.55
2023-02-28T16:46:35.115Z,11.57
2023-02-28T16:49:37.385Z,7.78
2023-02-28T16:52:39.142Z,5.55
2023-02-28T16:55:41.138Z,7.88
2023-02-28T16:58:43.249Z,121.85
2023-02-28T17:01:45.185Z,53.08
2023-02-28T17:04:48.082Z,20.00
2023-02-28T17:07:50.923Z,11.80
2023-02-28T17:10:52.751Z,5.70
2023-02-28T17:13:57.491Z,4.38
2023-02-28T17:17:02.080Z,5.97
2023-02-28T17:20:04.787Z,12.50
2023-02-28T17:23:07.897Z,15.05
2023-02-28T17:26:21.039Z,16.92
2023-02-28T17:29:23.336Z,10.25
2023-02-28T17:32:25.164Z,7.88
2023-02-28T17:35:27.772Z,5.57
2023-02-28T17:38:29.963Z,4.85
2023-02-28T17:41:31.905Z,5.35
2023-02-28T17:44:34.488Z,5.35
2023-02-28T17:47:36.559Z,4.90
2023-02-28T17:50:38.552Z,4.88
2023-02-28T17:53:41.282Z,6.18
2023-02-28T17:56:47.168Z,6.80
2023-02-28T17:59:48.955Z,5.38
2023-02-28T18:02:51.908Z,168.23
2023-02-28T18:05:54.318Z,200.63
2023-02-28T18:08:56.310Z,100.97
2023-02-28T18:11:58.287Z,70.80
2023-02-28T18:15:00.525Z,80.40
2023-02-28T18:18:03.350Z,99.57
2023-02-28T18:21:15.929Z,90.22
2023-02-28T18:24:19.788Z,26.02
2023-02-28T18:27:21.681Z,27.33
2023-02-28T18:30:24.814Z,10.82
2023-02-28T18:33:27.844Z,15.27
2023-02-28T18:36:29.902Z,12.95
2023-02-28T18:39:32.529Z,18.13
2023-02-28T18:42:34.337Z,37.17
2023-02-28T18:45:38.521Z,17.67
2023-02-28T18:48:40.370Z,17.48
2023-02-28T18:51:46.903Z,24.00
2023-02-28T18:54:49.056Z,25.10
2023-02-28T18:57:51.490Z,48.08
2023-02-28T19:00:54.697Z,68.32
2023-02-28T19:03:58.961Z,40.63
2023-02-28T19:07:02.918Z,30.35
2023-02-28T19:10:05.352Z,20.95
2023-02-28T19:13:07.446Z,23.92
2023-02-28T19:16:14.576Z,27.15
2023-02-28T19:19:16.466Z,16.95
2023-02-28T19:22:18.231Z,21.58
2023-02-28T19:25:20.113Z,17.58
2023-02-28T19:28:22.523Z,13.80
2023-02-28T19:31:26.175Z,21.40
2023-02-28T19:34:28.135Z,28.50
2023-02-28T19:37:30.310Z,24.30
2023-02-28T19:40:32.570Z,30.30
2023-02-28T19:43:34.429Z,20.13
2023-02-28T19:46:36.223Z,27.60
2023-02-28T19:49:38.003Z,28.75
2023-02-28T19:55:41.989Z,34.28
2023-02-28T19:58:43.792Z,12.52
2023-02-28T20:01:46.323Z,30.00
2023-02-28T20:04:50.667Z,26.73
2023-02-28T20:07:52.478Z,20.77
2023-02-28T20:10:54.630Z,20.48
2023-02-28T20:14:02.309Z,23.70
2023-02-28T20:17:04.417Z,24.58
2023-02-28T20:20:09.023Z,18.35
2023-02-28T20:23:11.165Z,18.65
2023-02-28T20:26:12.970Z,21.27
2023-02-28T20:29:14.869Z,24.48
2023-02-28T20:32:16.984Z,40.65
2023-02-28T20:35:18.802Z,45.55
2023-02-28T20:38:20.833Z,43.35
2023-02-28T20:41:23.063Z,29.50
2023-02-28T20:44:24.922Z,23.58
2023-02-28T20:47:26.906Z,15.27
2023-02-28T20:50:28.910Z,16.95
2023-02-28T20:53:31.675Z,12.52
2023-02-28T20:56:33.743Z,11.50
2023-02-28T20:59:35.673Z,10.23
2023-02-28T21:02:38.079Z,10.05
2023-02-28T21:05:40.424Z,11.53
2023-02-28T21:08:43.168Z,10.07
2023-02-28T21:11:46.325Z,8.98
2023-02-28T21:14:49.742Z,8.18
2023-02-28T21:17:52.957Z,8.23
2023-02-28T21:21:05.187Z,9.93
2023-02-28T21:24:07.345Z,10.63
2023-02-28T21:27:13.498Z,11.88
2023-02-28T21:30:15.485Z,9.90
2023-02-28T21:33:17.473Z,11.73
2023-02-28T21:36:23.279Z,11.00
2023-02-28T21:39:27.009Z,11.30
2023-02-28T21:42:29.247Z,11.77
2023-02-28T21:45:31.479Z,12.30
2023-02-28T21:48:33.827Z,11.23
2023-02-28T21:51:35.672Z,10.32
2023-02-28T21:54:37.742Z,13.45
2023-02-28T21:57:39.617Z,12.70
2023-02-28T22:00:42.606Z,10.55
2023-02-28T22:03:45.960Z,10.18
2023-02-28T22:13:04.624Z,9.60
2023-02-28T22:16:10.281Z,9.60
2023-02-28T22:19:12.088Z,8.75
2023-02-28T22:22:13.971Z,8.45
2023-02-28T22:25:15.866Z,8.57
2023-02-28T22:28:17.963Z,9.60
2023-02-28T22:31:29.268Z,12.52
2023-02-28T22:34:31.114Z,12.45
2023-02-28T22:37:33.622Z,10.98
2023-02-28T22:40:35.691Z,10.30
2023-02-28T22:43:41.979Z,9.25
2023-02-28T22:46:43.970Z,9.90
2023-02-28T22:49:45.900Z,9.70
2023-02-28T22:52:47.900Z,12.30
2023-02-28T22:55:55.901Z,10.52
2023-02-28T22:58:59.514Z,9.40
2023-02-28T23:02:01.486Z,8.85
2023-02-28T23:05:03.909Z,14.30
2023-02-28T23:08:05.920Z,17.83
2023-02-28T23:11:07.905Z,17.00
2023-02-28T23:14:12.837Z,15.43
2023-02-28T23:17:14.719Z,21.45
2023-02-28T23:20:19.716Z,20.75
2023-02-28T23:23:21.559Z,17.92
2023-02-28T23:26:23.814Z,15.40
2023-02-28T23:29:27.577Z,16.15
2023-02-28T23:32:29.443Z,13.15
2023-02-28T23:35:33.417Z,11.77
2023-02-28T23:38:36.042Z,12.05
2023-02-28T23:41:38.007Z,11.80
2023-02-28T23:44:41.127Z,10.93
2023-02-28T23:47:43.105Z,10.77
2023-02-28T23:50:45.123Z,10.02
2023-02-28T23:53:49.134Z,10.18
2023-02-28T23:56:51.214Z,9.02
2023-02-28T23:59:53.109Z,9.70
